Date,TemperatureHighF,TemperatureAvgF,TemperatureLowF,DewpointHighF,DewpointAvgF,DewpointLowF,HumidityHigh,HumidityAvg,HumidityLow,PressureMaxIn,PressureMinIn,WindSpeedMaxMPH,WindSpeedAvgMPH,GustSpeedMaxMPH,PrecipitationSumIn
2013-1-1,57.4,52.4,48.7,45.4,43.9,42.6,84,73,60,30.08,30.00,8,2,17,0.00
2013-1-2,57.5,51.1,45.9,48.4,45.7,42.4,89,82,64,30.25,30.08,3,1,6,0.00
2013-1-3,58.2,52.5,47.2,50.3,46.2,42.2,90,80,64,30.34,30.25,4,1,8,0.00
2013-1-4,58.2,51.5,45.9,43.7,38.7,33.2,77,63,39,30.28,30.00,6,1,13,0.00
2013-1-5,57.2,51.4,46.9,38.8,34.7,29.1,70,54,34,29.99,29.72,8,2,18,0.00
2013-1-6,51.8,47.6,43.4,40.0,34.7,28.7,74,61,51,29.84,29.64,16,6,31,0.00
2013-1-7,53.5,46.1,40.1,30.2,25.5,15.0,57,45,28,29.92,29.78,14,5,32,0.00
2013-1-8,45.3,39.0,36.4,31.5,25.7,13.8,80,60,28,30.14,29.92,15,6,36,0.02
2013-1-9,45.9,40.4,35.1,29.3,23.8,19.1,62,52,42,30.17,30.09,4,2,14,0.00
2013-1-10,51.9,45.1,37.4,36.9,29.3,20.9,69,55,37,30.11,29.96,5,2,13,0.00
2013-1-11,59.7,55.0,47.2,52.4,48.2,36.8,89,78,66,29.95,29.74,9,2,24,0.07
2013-1-12,58.6,52.7,47.3,48.0,43.9,39.6,88,73,52,29.97,29.74,10,2,21,0.00
2013-1-13,56.9,50.6,44.4,43.1,40.6,37.6,83,69,49,30.15,29.97,6,1,11,0.00
2013-1-14,59.1,53.5,48.2,47.3,44.4,42.0,82,71,61,30.21,30.14,10,3,20,0.00
2013-1-15,60.6,56.7,51.8,52.7,48.7,46.1,83,75,64,30.19,29.96,11,5,25,0.03
2013-1-16,60.6,57.1,51.9,52.9,48.5,40.7,90,74,53,29.95,29.60,15,8,33,0.93
2013-1-17,59.5,56.7,51.5,51.5,44.7,38.7,76,64,54,29.71,29.58,11,5,29,0.00
2013-1-18,59.4,55.4,49.1,51.2,45.6,35.4,86,70,48,29.58,29.39,17,8,35,0.17
2013-1-19,56.1,52.1,47.9,40.4,38.0,36.0,69,59,48,29.80,29.47,12,5,24,0.00
2013-1-20,63.0,55.6,48.8,54.3,46.3,39.5,81,71,56,29.88,29.78,7,2,14,0.00
2013-1-21,64.1,59.5,55.3,55.2,50.7,44.2,86,73,51,29.85,29.59,12,6,26,0.00
2013-1-22,62.0,58.1,53.1,52.1,47.2,42.4,80,68,50,29.73,29.60,8,2,19,0.00
2013-1-23,60.3,56.6,53.1,46.0,42.2,38.3,73,59,45,29.89,29.73,11,3,21,0.00
2013-1-24,63.0,56.1,49.1,53.5,48.1,42.8,85,75,60,29.88,29.52,15,5,32,0.51
2013-1-25,58.6,52.9,48.5,50.2,45.5,41.4,87,76,56,29.58,29.42,17,3,35,0.51
2013-1-26,56.9,52.5,47.8,47.9,44.7,40.4,87,75,61,29.59,29.37,8,2,18,0.45
2013-1-27,52.7,49.2,47.2,44.2,40.9,38.6,87,73,61,29.87,29.60,9,2,19,0.02
2013-1-28,54.6,50.5,46.6,42.3,40.1,37.0,81,68,56,29.92,29.83,8,2,19,0.00
2013-1-29,51.9,49.3,46.6,40.3,38.4,35.2,78,66,56,30.03,29.92,11,4,22,0.00
2013-1-30,55.3,49.2,42.7,41.2,35.4,25.6,78,60,35,30.02,29.88,5,2,11,0.00
2013-1-31,58.2,52.9,45.4,44.6,36.7,23.5,69,55,30,29.92,29.76,13,3,35,0.00